Border, Minnesota
Current Conditions -  °F | °C
As of 11:04 PM on Wednesday 22 Oct 2014 (Local Time) from KBDE Reporting Station
Overcast Overcast  
Wind Chill: 54°   Ceiling: 2900
Heat Index: 54°   Visibility: 10mi
Dew Point: 44°   Wind: 15mph
Humidity: 69%   Direction: 180°S
Pressure: 29.87"   Gusts: 22mph
Location:  48.5595°N, 94.661°W
Report Text: KBDE 230404Z AUTO 18013G19KT 10SM OVC029 12/07 A2987 RMK AO2 T01220067 TSNO
Loading
Personal Weather Stations






























Interactive Weather Map
Tropical Storm Tracking
New forecast layout! Learn more

10-Day Weather Forecast

Advertisements
Track Severe Weather on mobile